This is the latest recevied weather packets stored in our database for station/object EI8EPB-1. If no packets are shown the sender has not sent any weather packets the latest 1 day(s).
| Time | Temp. | Humidity | Pressure | Rain* | Wind** | Luminosity | Snow |
|---|---|---|---|---|---|---|---|
| 1778090104 | 11.67° C | 79% | 1011.7 hPa | 0 mm | - | - | - |
| 1778084104 | 12.22° C | 77% | 1012 hPa | 0 mm | - | - | - |
| 1778076004 | 14.44° C | 70% | 1012.3 hPa | 0 mm | - | - | - |
| 1778055004 | 10° C | 82% | 1014 hPa | 0 mm | - | - | - |
| 1778048404 | 7.22° C | 86% | 1013.7 hPa | 0 mm | - | - | - |
| 1778046604 | 6.67° C | 88% | 1013.6 hPa | 0 mm | - | - | - |
| 1778045404 | 6.67° C | 87% | 1013.6 hPa | 0 mm | - | - | - |
| 1778043604 | 6.67° C | 87% | 1013.5 hPa | 0 mm | - | - | - |
| 1778043004 | 6.67° C | 87% | 1013.5 hPa | 0 mm | - | - | - |
| 1778038804 | 7.22° C | 88% | 1013.8 hPa | 0 mm | - | - | - |
| 1778037305 | 7.78° C | 87% | 1013.8 hPa | 0 mm | - | - | - |
| 1778032804 | 8.33° C | 94% | 1014 hPa | 0 mm | - | - | - |
| 1778030705 | 8.89° C | 94% | 1014.1 hPa | 0 mm | - | - | - |
| 1778030104 | 8.89° C | 93% | 1014.2 hPa | 0 mm | - | - | - |
| 1778028304 | 8.89° C | 93% | 1014.2 hPa | 0 mm | - | - | - |
| 1778024104 | 8.89° C | 90% | 1014.4 hPa | 0 mm | - | - | - |
| 1778022004 | 9.44° C | 89% | 1014.6 hPa | 0 mm | - | - | - |
| 1778020804 | 10° C | 88% | 1014.6 hPa | 0 mm | - | - | - |
| 1778019604 | 10° C | 87% | 1014.7 hPa | 0 mm | - | - | - |
| 1778016304 | 10.56° C | 85% | 1014.7 hPa | 0 mm | - | - | - |
| 1778013304 | 11.11° C | 81% | 1014.6 hPa | 0 mm | - | - | - |
| 1778011804 | 11.11° C | 81% | 1014.6 hPa | 0 mm | - | - | - |
* Rain latest hour (hover to see other rain measurements)
** Current wind speed in m/s (hover to see current wind gust speed)